Home > Products > Valid Products > MTR

000
SAUS46 KSTO 040254
MTRBLU
METAR KBLU 040252Z AUTO 25004KT 10SM CLR 24/12 A3014 RMK AO2 SLP102
T02390117 58000





000
SAUS46 KSTO 040153
MTRBLU
METAR KBLU 040152Z AUTO 26006KT 10SM CLR 26/12 A3015 RMK AO2 SLP101
T02560117





000
SAUS46 KSTO 040053
MTRBLU
METAR KBLU 040052Z AUTO 27007KT 10SM CLR 26/12 A3015 RMK AO2 SLP103
T02560117





000
SAUS46 KSTO 032354
MTRBLU
METAR KBLU 032352Z AUTO 22009KT 10SM CLR 26/12 A3014 RMK AO2 SLP097
T02560122 10267 20228 58012





000
SAUS46 KSTO 032253
MTRBLU
METAR KBLU 032252Z AUTO 20006KT 10SM CLR 26/13 A3017 RMK AO2 LTG
DSNT N SLP107 T02610128





000
SAUS46 KSTO 032153
MTRBLU
METAR KBLU 032152Z AUTO 25004KT 10SM CLR 26/13 A3017 RMK AO2 LTG
DSNT N AND NE SLP106 T02560128





000
SAUS46 KSTO 032054
MTRBLU
METAR KBLU 032052Z AUTO 28006KT 10SM CLR 25/13 A3019 RMK AO2 LTG
DSNT NE AND E SLP111 T02500128 58005





000
SAUS46 KSTO 031954
MTRBLU
METAR KBLU 031952Z AUTO VRB03KT 10SM BKN100 BKN120 24/13 A3020 RMK
AO2 SLP122 T02390133





000
SAUS46 KSTO 031954
MTRBLU
METAR KBLU 031952Z AUTO VRB03KT 10SM BKN100 BKN120 24/13 A3020 RMK
AO2 SLP122 T02390133





000
SAUS46 KSTO 031854
MTRBLU
METAR KBLU 031852Z AUTO VRB05KT 10SM FEW110 24/14 A3020 RMK AO2 LTG
DSNT NE SLP127 T02390139





000
SAUS46 KSTO 031754
MTRBLU
METAR KBLU 031752Z AUTO 17009KT 10SM CLR 23/14 A3020 RMK AO2 SLP127
T02330139 10244 20183 53003





000
SAUS46 KSTO 031754
MTRBLU
METAR KBLU 031752Z AUTO 17009KT 10SM CLR 23/14 A3020 RMK AO2 SLP127
T02330139 10244 20183 53003





000
SAUS46 KSTO 031654
MTRBLU
METAR KBLU 031652Z AUTO 17005KT 10SM FEW110 24/14 A3019 RMK AO2
SLP118 T02390139





000
SAUS46 KSTO 031554
MTRBLU
METAR KBLU 031552Z AUTO 00000KT 10SM FEW110 23/14 A3019 RMK AO2
SLP126 T02330139





000
SAUS46 KSTO 031454
MTRBLU
METAR KBLU 031452Z AUTO 13003KT 10SM CLR 21/13 A3019 RMK AO2 SLP139
T02060128 51011





000
SAUS46 KSTO 031353
MTRBLU
METAR KBLU 031352Z AUTO 13004KT 10SM BKN100 19/12 A3019 RMK AO2
SLP133 T01940122





000
SAUS46 KSTO 031253
MTRBLU
METAR KBLU 031252Z AUTO 13004KT 10SM BKN120 19/12 A3018 RMK AO2
SLP118 T01890122





000
SAUS46 KSTO 031153
MTRBLU
METAR KBLU 031152Z AUTO 13003KT 10SM FEW120 21/11 A3016 RMK AO2
SLP101 70003 T02060111 10222 20189 51004





000
SAUS46 KSTO 031054
MTRBLU
METAR KBLU 031052Z AUTO 11003KT 10SM CLR 21/12 A3015 RMK AO2 SLP095
T02060117





000
SAUS46 KSTO 030954
MTRBLU
METAR KBLU 030952Z AUTO 00000KT 10SM FEW039 SCT090 OVC110 21/12
A3016 RMK AO2 SLP096 T02060117





000
SAUS46 KSTO 030954
MTRBLU
METAR KBLU 030952Z AUTO 00000KT 10SM FEW039 SCT090 OVC110 21/12
A3016 RMK AO2 SLP096 T02060117





000
SAUS46 KSTO 030854
MTRBLU
METAR KBLU 030852Z AUTO 04005KT 10SM FEW100 SCT120 21/12 A3014 RMK
AO2 SLP090 T02110117 58021





000
SAUS46 KSTO 030754
MTRBLU
METAR KBLU 030752Z AUTO VRB04KT 10SM BKN110 20/12 A3017 RMK AO2
SLP105 T02000122 402830167





000
SAUS46 KSTO 030754
MTRBLU
METAR KBLU 030752Z AUTO VRB04KT 10SM BKN110 20/12 A3017 RMK AO2
SLP105 T02000122 402830167





000
SAUS46 KSTO 030653
MTRBLU
METAR KBLU 030652Z AUTO 00000KT 10SM BKN100 19/13 A3019 RMK AO2
SLP114 T01890128





000
SAUS46 KSTO 030553
MTRBLU
METAR KBLU 030552Z AUTO 00000KT 10SM FEW050 SCT100 20/13 A3021 RMK
AO2 RAB22E48 SLP120 P0000 60003 T02000133 10256 20167 58004





000
SAUS46 KSTO 030553
MTRBLU
METAR KBLU 030552Z AUTO 00000KT 10SM FEW050 SCT100 20/13 A3021 RMK
AO2 RAB22E48 SLP120 P0000 60003 T02000133 10256 20167 58004





000
SAUS46 KSTO 030454
MTRBLU
METAR KBLU 030452Z AUTO 04006KT 10SM BKN095 20/12 A3023 RMK AO2 LTG
DSNT NW SLP130 T02000122





000
SAUS46 KSTO 030354
MTRBLU
METAR KBLU 030352Z AUTO 07003KT 10SM SCT110 19/12 A3021 RMK AO2 LTG
DSNT W-N RAE02 SLP126 P0000 T01890122





000
SAUS46 KSTO 030254
MTRBLU
METAR KBLU 030252Z AUTO 12006KT 10SM VCTS -RA OVC100 17/14 A3023 RMK
AO2 LTG DSNT N AND NE SLP144 P0003 60003 T01670139 50008





000
SAUS46 KSTO 030213
MTRBLU
SPECI KBLU 030211Z AUTO 11006KT 8SM RA OVC100 19/12 A3025 RMK AO2
LTG DSNT NE P0000 T01940122





000
SAUS46 KSTO 030153
MTRBLU
METAR KBLU 030152Z AUTO VRB05KT 10SM VCTS -RA OVC100 21/12 A3022 RMK
AO2 LTG DSNT E RAB47 SLP138 P0000 T02060117





000
SAUS46 KSTO 030153
MTRBLU
METAR KBLU 030152Z AUTO VRB05KT 10SM VCTS -RA OVC100 21/12 A3022 RMK
AO2 LTG DSNT E RAB47 SLP138 P0000 T02060117





000
SAUS46 KSTO 030053
MTRBLU
METAR KBLU 030052Z AUTO 18004KT 10SM SCT100 24/12 A3020 RMK AO2 LTG
DSNT N AND SE SLP125 T02440122





000
SAUS46 KSTO 022354
MTRBLU
METAR KBLU 022352Z AUTO 22007KT 200V260 10SM FEW065 SCT085 BKN110
26/10 A3019 RMK AO2 LTG DSNT NE AND SE SLP113 T02560100 10283 20256
56009





000
SAUS46 KSTO 022254
MTRBLU
METAR KBLU 022252Z AUTO 23008KT 200V260 10SM CLR 27/10 A3021 RMK AO2
SLP106 T02720100





000
SAUS46 KSTO 022154
MTRBLU
METAR KBLU 022152Z AUTO VRB04KT 10SM CLR 28/11 A3021 RMK AO2 SLP104
T02830111





000
SAUS46 KSTO 022154
MTRBLU
METAR KBLU 022152Z AUTO VRB04KT 10SM CLR 28/11 A3021 RMK AO2 SLP104
T02830111





000
SAUS46 KSTO 022054
MTRBLU
METAR KBLU 022052Z AUTO VRB05KT 10SM CLR 27/12 A3022 RMK AO2 SLP109
T02720117 58000





000
SAUS46 KSTO 022054
MTRBLU
METAR KBLU 022052Z AUTO VRB05KT 10SM CLR 27/12 A3022 RMK AO2 SLP109
T02720117 58000





000
SAUS46 KSTO 021953
MTRBLU
METAR KBLU 021952Z AUTO 28005KT 10SM CLR 27/11 A3023 RMK AO2 SLP117
T02720111





000
SAUS46 KSTO 021853
MTRBLU
METAR KBLU 021852Z AUTO 25004KT 10SM CLR 27/11 A3023 RMK AO2 SLP116
T02720106





000
SAUS46 KSTO 021754
MTRBLU
METAR KBLU 021752Z AUTO VRB04KT 10SM CLR 27/09 A3022 RMK AO2 SLP116
T02670094 10272 20189 53001





000
SAUS46 KSTO 021653
MTRBLU
METAR KBLU 021652Z AUTO 19004KT 10SM CLR 26/10 A3022 RMK AO2 SLP121
T02560100





000
SAUS46 KSTO 021553
MTRBLU
METAR KBLU 021552Z AUTO 00000KT 10SM CLR 25/09 A3022 RMK AO2 SLP118
T02500089





000
SAUS46 KSTO 021454
MTRBLU
METAR KBLU 021452Z AUTO 00000KT 10SM CLR 23/10 A3022 RMK AO2 SLP121
T02280100 52001





000
SAUS46 KSTO 021454
MTRBLU
METAR KBLU 021452Z AUTO 00000KT 10SM CLR 23/10 A3022 RMK AO2 SLP121
T02280100 52001





000
SAUS46 KSTO 021354
MTRBLU
METAR KBLU 021352Z AUTO 05004KT 10SM CLR 21/08 A3022 RMK AO2 SLP123
T02060083





000
SAUS46 KSTO 021354
MTRBLU
METAR KBLU 021352Z AUTO 05004KT 10SM CLR 21/08 A3022 RMK AO2 SLP123
T02060083





000
SAUS46 KSTO 021254
MTRBLU
METAR KBLU 021252Z AUTO 10004KT 10SM CLR 19/09 A3022 RMK AO2 SLP126
T01890094





000
SAUS46 KSTO 021153
MTRBLU
METAR KBLU 021152Z AUTO 14004KT 10SM CLR 21/08 A3022 RMK AO2 SLP122
T02060083 10256 20206 53006





000
SAUS46 KSTO 021153
MTRBLU
METAR KBLU 021152Z AUTO 14004KT 10SM CLR 21/08 A3022 RMK AO2 SLP122
T02060083 10256 20206 53006





000
SAUS46 KSTO 021053
MTRBLU
METAR KBLU 021052Z AUTO 22003KT 10SM CLR 23/06 A3020 RMK AO2 SLP107
T02330061





000
SAUS46 KSTO 020953
MTRBLU
METAR KBLU 020952Z AUTO 04004KT 10SM CLR 24/07 A3020 RMK AO2 SLP109
T02390067





000
SAUS46 KSTO 020854
MTRBLU
METAR KBLU 020852Z AUTO 07003KT 10SM CLR 24/05 A3020 RMK AO2 SLP106
T02440050 56007





000
SAUS46 KSTO 020754
MTRBLU
METAR KBLU 020752Z AUTO 13003KT 10SM CLR 23/08 A3020 RMK AO2 SLP114
T02280078 402940222





000
SAUS46 KSTO 020654
MTRBLU
METAR KBLU 020652Z AUTO 02003KT 10SM CLR 23/09 A3020 RMK AO2 SLP103
T02330089





000
SAUS46 KSTO 020554
MTRBLU
METAR KBLU 020552Z AUTO 03004KT 10SM CLR 23/09 A3022 RMK AO2 SLP108
T02330094 10272 20222 58003





000
SAUS46 KSTO 020454
MTRBLU
METAR KBLU 020452Z AUTO 04004KT 10SM CLR 22/09 A3023 RMK AO2 SLP118
T02220094





000
SAUS46 KSTO 020354
MTRBLU
METAR KBLU 020352Z AUTO 33003KT 10SM CLR 24/10 A3023 RMK AO2 SLP119
T02390100





000
SAUS46 KSTO 020354
MTRBLU
METAR KBLU 020352Z AUTO 33003KT 10SM CLR 24/10 A3023 RMK AO2 SLP119
T02390100





000
SAUS46 KSTO 020254
MTRBLU
METAR KBLU 020252Z AUTO 00000KT 10SM CLR 24/11 A3023 RMK AO2 SLP118
T02440111 55005





000
SAUS46 KSTO 020254
MTRBLU
METAR KBLU 020252Z AUTO 00000KT 10SM CLR 24/11 A3023 RMK AO2 SLP118
T02440111 55005





000
SAUS46 KSTO 020154
MTRBLU
METAR KBLU 020152Z AUTO 25003KT 10SM CLR 26/09 A3023 RMK AO2 SLP116
T02560094





000
SAUS46 KSTO 020154
MTRBLU
METAR KBLU 020152Z AUTO 25003KT 10SM CLR 26/09 A3023 RMK AO2 SLP116
T02560094





000
SAUS46 KSTO 020054
MTRBLU
METAR KBLU 020052Z AUTO VRB05KT 10SM CLR 27/08 A3025 RMK AO2 SLP120
T02670083





000
SAUS46 KSTO 012354
MTRBLU
METAR KBLU 012352Z AUTO VRB05KT 10SM CLR 26/09 A3025 RMK AO2 SLP122
T02610089 10289 20250 58003





000
SAUS46 KSTO 012354
MTRBLU
METAR KBLU 012352Z AUTO VRB05KT 10SM CLR 26/09 A3025 RMK AO2 SLP122
T02610089 10289 20250 58003





000
SAUS46 KSTO 012254
MTRBLU
METAR KBLU 012252Z AUTO 21005KT 10SM CLR 26/09 A3026 RMK AO2 SLP124
T02610094





000
SAUS46 KSTO 012254
MTRBLU
METAR KBLU 012252Z AUTO 21005KT 10SM CLR 26/09 A3026 RMK AO2 SLP124
T02610094





000
SAUS46 KSTO 012154
MTRBLU
METAR KBLU 012152Z AUTO 17005KT 10SM CLR 25/09 A3027 RMK AO2 SLP130
T02500089





000
SAUS46 KSTO 012154
MTRBLU
METAR KBLU 012152Z AUTO 17005KT 10SM CLR 25/09 A3027 RMK AO2 SLP130
T02500089





000
SAUS46 KSTO 012054
MTRBLU
METAR KBLU 012052Z AUTO 22005KT 10SM CLR 26/10 A3026 RMK AO2 SLP128
T02560100 51014





000
SAUS46 KSTO 011953
MTRBLU
METAR KBLU 011952Z AUTO 18011KT 10SM CLR 25/13 A3026 RMK AO2 SLP127
T02500128





000
SAUS46 KSTO 011854
MTRBLU
METAR KBLU 011852Z AUTO 20010KT 10SM CLR 27/13 A3024 RMK AO2 SLP115
T02720128





000
SAUS46 KSTO 011754
MTRBLU
METAR KBLU 011752Z AUTO VRB05KT 10SM CLR 29/13 A3021 RMK AO2 SLP103
T02890128 10294 20239 53009





000
SAUS46 KSTO 011654
MTRBLU
METAR KBLU 011652Z AUTO VRB03KT 10SM CLR 28/11 A3020 RMK AO2 SLP097
T02780106





000
SAUS46 KSTO 011554
MTRBLU
METAR KBLU 011552Z AUTO 07003KT 10SM CLR 25/10 A3019 RMK AO2 SLP104
T02500100





000
SAUS46 KSTO 011554
MTRBLU
METAR KBLU 011552Z AUTO 07003KT 10SM CLR 25/10 A3019 RMK AO2 SLP104
T02500100





000
SAUS46 KSTO 011454
MTRBLU
METAR KBLU 011452Z AUTO VRB05KT 10SM CLR 25/08 A3018 RMK AO2 SLP092
T02500078 53007





000
SAUS46 KSTO 011454
MTRBLU
METAR KBLU 011452Z AUTO VRB05KT 10SM CLR 25/08 A3018 RMK AO2 SLP092
T02500078 53007





000
SAUS46 KSTO 011353
MTRBLU
METAR KBLU 011352Z AUTO 04005KT 10SM CLR 24/08 A3017 RMK AO2 SLP089
T02440078





000
SAUS46 KSTO 011253
MTRBLU
METAR KBLU 011252Z AUTO VRB04KT 10SM CLR 24/07 A3016 RMK AO2 SLP084
T02440072





000
SAUS46 KSTO 011253
MTRBLU
METAR KBLU 011252Z AUTO VRB04KT 10SM CLR 24/07 A3016 RMK AO2 SLP084
T02440072





000
SAUS46 KSTO 011154
MTRBLU
METAR KBLU 011152Z AUTO VRB05KT 10SM CLR 24/07 A3016 RMK AO2 SLP081
T02440072 10261 20239 58009





000
SAUS46 KSTO 011154
MTRBLU
METAR KBLU 011152Z AUTO VRB05KT 10SM CLR 24/07 A3016 RMK AO2 SLP081
T02440072 10261 20239 58009





000
SAUS46 KSTO 011054
MTRBLU
METAR KBLU 011052Z AUTO 36004KT 10SM CLR 25/07 A3017 RMK AO2 SLP083
T02500072





000
SAUS46 KSTO 010954
MTRBLU
METAR KBLU 010952Z AUTO 00000KT 10SM CLR 24/07 A3018 RMK AO2 SLP090
T02440072





000
SAUS46 KSTO 010854
MTRBLU
METAR KBLU 010852Z AUTO 05003KT 10SM CLR 24/08 A3019 RMK AO2 SLP092
T02440078 57011





000
SAUS46 KSTO 010854
MTRBLU
METAR KBLU 010852Z AUTO 05003KT 10SM CLR 24/08 A3019 RMK AO2 SLP092
T02440078 57011





000
SAUS46 KSTO 010754
MTRBLU
METAR KBLU 010752Z AUTO 08003KT 10SM CLR 25/07 A3020 RMK AO2 SLP096
T02500072 403060233





000
SAUS46 KSTO 010654
MTRBLU
METAR KBLU 010652Z AUTO 00000KT 10SM CLR 24/07 A3021 RMK AO2 SLP103
T02440072





000
SAUS46 KSTO 010654
MTRBLU
METAR KBLU 010652Z AUTO 00000KT 10SM CLR 24/07 A3021 RMK AO2 SLP103
T02440072





000
SAUS46 KSTO 010554
MTRBLU
METAR KBLU 010552Z AUTO 03003KT 10SM CLR 24/07 A3023 RMK AO2 SLP107
T02440072 10306 20233 51009





000
SAUS46 KSTO 010554
MTRBLU
METAR KBLU 010552Z AUTO 03003KT 10SM CLR 24/07 A3023 RMK AO2 SLP107
T02440072 10306 20233 51009





000
SAUS46 KSTO 010454
MTRBLU
METAR KBLU 010452Z AUTO 00000KT 10SM CLR 25/06 A3022 RMK AO2 SLP109
T02500061





000
SAUS46 KSTO 010354
MTRBLU
METAR KBLU 010352Z AUTO 00000KT 10SM CLR 25/07 A3020 RMK AO2 SLP101
T02500067





    US Dept of Commerce
    National Oceanic and Atmospheric Administration
    National Weather Service
    1325 East West Highway
    Silver Spring, MD 20910
    Page Author: NWS Internet Services Team
Disclaimer
Information Quality
Credits
Glossary
Privacy Policy
Freedom of Information Act (FOIA)
About Us
Career Opportunities